sensor_id;sensor_type;location;lat;lon;timestamp;P1;durP1;ratioP1;P2;durP2;ratioP2
73684;SDS011;61985;51.070;14.064;2023-03-03T00:01:00;57.85;;;25.20;;
73684;SDS011;61985;51.070;14.064;2023-03-03T00:03:26;70.10;;;26.25;;
73684;SDS011;61985;51.070;14.064;2023-03-03T00:05:51;58.45;;;24.25;;
73684;SDS011;61985;51.070;14.064;2023-03-03T00:08:17;70.13;;;24.73;;
73684;SDS011;61985;51.070;14.064;2023-03-03T00:10:44;54.92;;;24.92;;
73684;SDS011;61985;51.070;14.064;2023-03-03T00:13:17;58.72;;;24.85;;
73684;SDS011;61985;51.070;14.064;2023-03-03T00:15:44;60.42;;;23.75;;
73684;SDS011;61985;51.070;14.064;2023-03-03T00:18:16;69.18;;;23.88;;
73684;SDS011;61985;51.070;14.064;2023-03-03T00:20:47;70.47;;;26.73;;
73684;SDS011;61985;51.070;14.064;2023-03-03T00:23:22;57.08;;;24.38;;
73684;SDS011;61985;51.070;14.064;2023-03-03T00:25:56;62.20;;;25.33;;
73684;SDS011;61985;51.070;14.064;2023-03-03T00:28:29;54.00;;;23.20;;
73684;SDS011;61985;51.070;14.064;2023-03-03T00:31:13;58.20;;;23.30;;
73684;SDS011;61985;51.070;14.064;2023-03-03T00:33:44;54.25;;;23.13;;
73684;SDS011;61985;51.070;14.064;2023-03-03T00:38:40;55.63;;;23.02;;
73684;SDS011;61985;51.070;14.064;2023-03-03T00:41:21;57.33;;;22.88;;
73684;SDS011;61985;51.070;14.064;2023-03-03T00:43:49;63.70;;;24.75;;
73684;SDS011;61985;51.070;14.064;2023-03-03T00:46:16;62.03;;;23.85;;
73684;SDS011;61985;51.070;14.064;2023-03-03T00:48:44;61.33;;;23.17;;
73684;SDS011;61985;51.070;14.064;2023-03-03T00:51:29;69.40;;;26.33;;
73684;SDS011;61985;51.070;14.064;2023-03-03T00:53:57;55.72;;;22.80;;
73684;SDS011;61985;51.070;14.064;2023-03-03T00:56:25;55.45;;;23.75;;
73684;SDS011;61985;51.070;14.064;2023-03-03T00:58:51;60.20;;;25.42;;
73684;SDS011;61985;51.070;14.064;2023-03-03T01:01:17;67.03;;;24.95;;
73684;SDS011;61985;51.070;14.064;2023-03-03T01:03:42;53.08;;;23.45;;
73684;SDS011;61985;51.070;14.064;2023-03-03T01:06:08;57.40;;;22.60;;
73684;SDS011;61985;51.070;14.064;2023-03-03T01:08:34;53.13;;;21.50;;
73684;SDS011;61985;51.070;14.064;2023-03-03T01:11:05;58.17;;;24.05;;
73684;SDS011;61985;51.070;14.064;2023-03-03T01:13:35;69.93;;;25.42;;
73684;SDS011;61985;51.070;14.064;2023-03-03T01:16:01;61.60;;;25.23;;
73684;SDS011;61985;51.070;14.064;2023-03-03T01:18:28;59.83;;;24.80;;
73684;SDS011;61985;51.070;14.064;2023-03-03T01:20:54;58.50;;;24.27;;
73684;SDS011;61985;51.070;14.064;2023-03-03T01:23:19;56.05;;;24.55;;
73684;SDS011;61985;51.070;14.064;2023-03-03T01:25:45;58.05;;;24.30;;
73684;SDS011;61985;51.070;14.064;2023-03-03T01:28:10;59.97;;;25.02;;
73684;SDS011;61985;51.070;14.064;2023-03-03T01:30:36;57.33;;;23.35;;
73684;SDS011;61985;51.070;14.064;2023-03-03T01:33:02;63.05;;;24.23;;
73684;SDS011;61985;51.070;14.064;2023-03-03T01:35:27;60.47;;;25.77;;
73684;SDS011;61985;51.070;14.064;2023-03-03T01:37:53;54.92;;;22.52;;
73684;SDS011;61985;51.070;14.064;2023-03-03T01:40:20;62.72;;;23.77;;
73684;SDS011;61985;51.070;14.064;2023-03-03T01:42:47;64.13;;;26.08;;
73684;SDS011;61985;51.070;14.064;2023-03-03T01:47:46;62.75;;;25.63;;
73684;SDS011;61985;51.070;14.064;2023-03-03T01:50:17;60.70;;;22.85;;
73684;SDS011;61985;51.070;14.064;2023-03-03T01:52:51;57.75;;;23.50;;
73684;SDS011;61985;51.070;14.064;2023-03-03T01:55:24;60.85;;;24.85;;
73684;SDS011;61985;51.070;14.064;2023-03-03T01:57:56;69.90;;;26.05;;
73684;SDS011;61985;51.070;14.064;2023-03-03T02:00:26;67.32;;;26.30;;
73684;SDS011;61985;51.070;14.064;2023-03-03T02:02:53;56.53;;;25.27;;
73684;SDS011;61985;51.070;14.064;2023-03-03T02:05:18;64.00;;;26.13;;
73684;SDS011;61985;51.070;14.064;2023-03-03T02:07:44;55.88;;;24.20;;
73684;SDS011;61985;51.070;14.064;2023-03-03T02:10:11;80.32;;;26.33;;
73684;SDS011;61985;51.070;14.064;2023-03-03T02:17:52;50.10;;;23.80;;
73684;SDS011;61985;51.070;14.064;2023-03-03T02:26:02;53.95;;;21.60;;
73684;SDS011;61985;51.070;14.064;2023-03-03T02:28:37;60.97;;;23.38;;
73684;SDS011;61985;51.070;14.064;2023-03-03T02:31:05;52.80;;;21.75;;
73684;SDS011;61985;51.070;14.064;2023-03-03T02:33:34;54.50;;;22.10;;
73684;SDS011;61985;51.070;14.064;2023-03-03T02:36:00;47.58;;;21.25;;
73684;SDS011;61985;51.070;14.064;2023-03-03T02:38:26;57.90;;;22.58;;
73684;SDS011;61985;51.070;14.064;2023-03-03T02:41:02;49.58;;;20.15;;
73684;SDS011;61985;51.070;14.064;2023-03-03T02:46:13;52.67;;;20.48;;
73684;SDS011;61985;51.070;14.064;2023-03-03T02:48:38;50.30;;;20.08;;
73684;SDS011;61985;51.070;14.064;2023-03-03T02:51:04;58.28;;;20.50;;
73684;SDS011;61985;51.070;14.064;2023-03-03T02:53:29;69.20;;;22.75;;
73684;SDS011;61985;51.070;14.064;2023-03-03T02:55:55;81.18;;;24.60;;
73684;SDS011;61985;51.070;14.064;2023-03-03T02:58:20;70.75;;;24.77;;
73684;SDS011;61985;51.070;14.064;2023-03-03T03:00:45;63.53;;;22.15;;
73684;SDS011;61985;51.070;14.064;2023-03-03T03:03:13;84.30;;;26.05;;
73684;SDS011;61985;51.070;14.064;2023-03-03T03:05:39;68.70;;;22.40;;
73684;SDS011;61985;51.070;14.064;2023-03-03T03:08:04;47.75;;;19.75;;
73684;SDS011;61985;51.070;14.064;2023-03-03T03:10:30;52.67;;;22.17;;
73684;SDS011;61985;51.070;14.064;2023-03-03T03:12:55;51.17;;;19.00;;
73684;SDS011;61985;51.070;14.064;2023-03-03T03:15:21;35.10;;;15.07;;
73684;SDS011;61985;51.070;14.064;2023-03-03T03:17:46;42.83;;;15.70;;
73684;SDS011;61985;51.070;14.064;2023-03-03T03:20:11;39.90;;;15.95;;
73684;SDS011;61985;51.070;14.064;2023-03-03T03:22:37;38.58;;;15.25;;
73684;SDS011;61985;51.070;14.064;2023-03-03T03:25:02;39.95;;;16.45;;
73684;SDS011;61985;51.070;14.064;2023-03-03T03:27:28;47.00;;;17.80;;
73684;SDS011;61985;51.070;14.064;2023-03-03T03:29:53;53.43;;;17.33;;
73684;SDS011;61985;51.070;14.064;2023-03-03T03:32:18;56.17;;;20.92;;
73684;SDS011;61985;51.070;14.064;2023-03-03T03:34:44;46.22;;;16.88;;
73684;SDS011;61985;51.070;14.064;2023-03-03T03:37:09;41.90;;;15.93;;
73684;SDS011;61985;51.070;14.064;2023-03-03T03:39:35;41.17;;;15.97;;
73684;SDS011;61985;51.070;14.064;2023-03-03T03:42:00;42.60;;;16.73;;
73684;SDS011;61985;51.070;14.064;2023-03-03T03:44:26;33.27;;;14.90;;
73684;SDS011;61985;51.070;14.064;2023-03-03T03:46:51;37.65;;;16.00;;
73684;SDS011;61985;51.070;14.064;2023-03-03T03:49:17;42.55;;;16.35;;
73684;SDS011;61985;51.070;14.064;2023-03-03T03:51:42;43.15;;;17.05;;
73684;SDS011;61985;51.070;14.064;2023-03-03T03:54:08;46.20;;;16.70;;
73684;SDS011;61985;51.070;14.064;2023-03-03T03:56:33;42.05;;;14.88;;
73684;SDS011;61985;51.070;14.064;2023-03-03T03:58:58;40.83;;;16.05;;
73684;SDS011;61985;51.070;14.064;2023-03-03T04:01:24;48.80;;;17.85;;
73684;SDS011;61985;51.070;14.064;2023-03-03T04:03:50;45.38;;;17.38;;
73684;SDS011;61985;51.070;14.064;2023-03-03T04:06:15;36.55;;;15.30;;
73684;SDS011;61985;51.070;14.064;2023-03-03T04:08:41;33.97;;;15.40;;
73684;SDS011;61985;51.070;14.064;2023-03-03T04:11:06;40.95;;;16.50;;
73684;SDS011;61985;51.070;14.064;2023-03-03T04:13:31;34.08;;;14.27;;
73684;SDS011;61985;51.070;14.064;2023-03-03T04:15:59;40.63;;;14.97;;
73684;SDS011;61985;51.070;14.064;2023-03-03T04:18:27;36.38;;;14.23;;
73684;SDS011;61985;51.070;14.064;2023-03-03T04:20:52;39.93;;;16.30;;
73684;SDS011;61985;51.070;14.064;2023-03-03T04:23:18;39.75;;;14.32;;
73684;SDS011;61985;51.070;14.064;2023-03-03T04:25:47;36.03;;;13.80;;
73684;SDS011;61985;51.070;14.064;2023-03-03T04:28:16;37.57;;;14.50;;
73684;SDS011;61985;51.070;14.064;2023-03-03T04:30:42;33.13;;;13.00;;
73684;SDS011;61985;51.070;14.064;2023-03-03T04:33:08;42.40;;;15.17;;
73684;SDS011;61985;51.070;14.064;2023-03-03T04:35:33;41.50;;;15.53;;
73684;SDS011;61985;51.070;14.064;2023-03-03T04:37:59;36.33;;;14.03;;
73684;SDS011;61985;51.070;14.064;2023-03-03T04:40:24;31.83;;;13.23;;
73684;SDS011;61985;51.070;14.064;2023-03-03T04:42:50;29.93;;;12.87;;
73684;SDS011;61985;51.070;14.064;2023-03-03T04:45:15;33.17;;;13.57;;
73684;SDS011;61985;51.070;14.064;2023-03-03T04:47:41;33.13;;;13.07;;
73684;SDS011;61985;51.070;14.064;2023-03-03T04:50:06;39.23;;;14.07;;
73684;SDS011;61985;51.070;14.064;2023-03-03T04:52:33;41.13;;;14.77;;
73684;SDS011;61985;51.070;14.064;2023-03-03T04:54:59;38.80;;;15.20;;
73684;SDS011;61985;51.070;14.064;2023-03-03T04:57:24;32.10;;;11.90;;
73684;SDS011;61985;51.070;14.064;2023-03-03T04:59:49;32.23;;;12.77;;
73684;SDS011;61985;51.070;14.064;2023-03-03T05:02:15;36.13;;;12.93;;
73684;SDS011;61985;51.070;14.064;2023-03-03T05:04:41;34.43;;;12.60;;
73684;SDS011;61985;51.070;14.064;2023-03-03T05:07:06;34.00;;;13.60;;
73684;SDS011;61985;51.070;14.064;2023-03-03T05:09:32;34.60;;;13.90;;
73684;SDS011;61985;51.070;14.064;2023-03-03T05:11:57;39.43;;;15.23;;
73684;SDS011;61985;51.070;14.064;2023-03-03T05:14:22;40.20;;;14.77;;
73684;SDS011;61985;51.070;14.064;2023-03-03T05:16:48;37.30;;;13.32;;
73684;SDS011;61985;51.070;14.064;2023-03-03T05:19:13;39.53;;;14.47;;
73684;SDS011;61985;51.070;14.064;2023-03-03T05:21:38;34.63;;;13.50;;
73684;SDS011;61985;51.070;14.064;2023-03-03T05:24:06;34.53;;;13.18;;
73684;SDS011;61985;51.070;14.064;2023-03-03T05:26:32;42.50;;;14.77;;
73684;SDS011;61985;51.070;14.064;2023-03-03T05:28:58;37.67;;;13.70;;
73684;SDS011;61985;51.070;14.064;2023-03-03T05:31:23;36.25;;;12.52;;
73684;SDS011;61985;51.070;14.064;2023-03-03T05:33:51;34.40;;;13.82;;
73684;SDS011;61985;51.070;14.064;2023-03-03T05:36:16;100.88;;;31.52;;
73684;SDS011;61985;51.070;14.064;2023-03-03T05:38:42;30.53;;;12.63;;
73684;SDS011;61985;51.070;14.064;2023-03-03T05:41:07;36.83;;;13.00;;
73684;SDS011;61985;51.070;14.064;2023-03-03T05:43:33;31.55;;;12.50;;
73684;SDS011;61985;51.070;14.064;2023-03-03T05:45:58;37.47;;;14.53;;
73684;SDS011;61985;51.070;14.064;2023-03-03T05:48:23;34.53;;;13.67;;
73684;SDS011;61985;51.070;14.064;2023-03-03T05:50:49;33.93;;;13.60;;
73684;SDS011;61985;51.070;14.064;2023-03-03T05:53:14;41.23;;;15.07;;
73684;SDS011;61985;51.070;14.064;2023-03-03T05:55:39;31.70;;;13.37;;
73684;SDS011;61985;51.070;14.064;2023-03-03T05:58:05;38.67;;;13.13;;
73684;SDS011;61985;51.070;14.064;2023-03-03T06:00:30;27.27;;;11.57;;
73684;SDS011;61985;51.070;14.064;2023-03-03T06:02:55;34.70;;;13.00;;
73684;SDS011;61985;51.070;14.064;2023-03-03T06:05:21;42.00;;;15.37;;
73684;SDS011;61985;51.070;14.064;2023-03-03T06:07:46;32.33;;;12.60;;
73684;SDS011;61985;51.070;14.064;2023-03-03T06:10:11;44.13;;;14.67;;
73684;SDS011;61985;51.070;14.064;2023-03-03T06:12:37;25.53;;;11.00;;
73684;SDS011;61985;51.070;14.064;2023-03-03T06:15:03;32.60;;;13.05;;
73684;SDS011;61985;51.070;14.064;2023-03-03T06:17:30;34.53;;;13.30;;
73684;SDS011;61985;51.070;14.064;2023-03-03T06:19:55;39.30;;;14.00;;
73684;SDS011;61985;51.070;14.064;2023-03-03T06:22:20;35.30;;;14.60;;
73684;SDS011;61985;51.070;14.064;2023-03-03T06:24:46;30.53;;;11.23;;
73684;SDS011;61985;51.070;14.064;2023-03-03T06:27:11;32.60;;;14.00;;
73684;SDS011;61985;51.070;14.064;2023-03-03T06:29:36;32.53;;;13.23;;
73684;SDS011;61985;51.070;14.064;2023-03-03T06:32:02;29.17;;;12.03;;
73684;SDS011;61985;51.070;14.064;2023-03-03T06:34:27;29.03;;;11.43;;
73684;SDS011;61985;51.070;14.064;2023-03-03T06:36:52;31.13;;;12.53;;
73684;SDS011;61985;51.070;14.064;2023-03-03T06:39:18;33.13;;;12.55;;
73684;SDS011;61985;51.070;14.064;2023-03-03T06:41:43;24.90;;;11.02;;
73684;SDS011;61985;51.070;14.064;2023-03-03T06:44:08;28.38;;;10.77;;
73684;SDS011;61985;51.070;14.064;2023-03-03T06:46:35;24.65;;;10.98;;
73684;SDS011;61985;51.070;14.064;2023-03-03T06:49:01;25.23;;;10.52;;
73684;SDS011;61985;51.070;14.064;2023-03-03T06:51:30;29.42;;;11.30;;
73684;SDS011;61985;51.070;14.064;2023-03-03T06:53:57;28.98;;;10.52;;
73684;SDS011;61985;51.070;14.064;2023-03-03T06:56:30;27.45;;;10.60;;
73684;SDS011;61985;51.070;14.064;2023-03-03T06:58:59;43.47;;;17.00;;
73684;SDS011;61985;51.070;14.064;2023-03-03T07:01:26;58.80;;;21.15;;
73684;SDS011;61985;51.070;14.064;2023-03-03T07:03:57;48.70;;;17.52;;
73684;SDS011;61985;51.070;14.064;2023-03-03T07:06:24;48.78;;;18.10;;
73684;SDS011;61985;51.070;14.064;2023-03-03T07:08:52;26.65;;;9.68;;
73684;SDS011;61985;51.070;14.064;2023-03-03T07:11:19;24.80;;;9.80;;
73684;SDS011;61985;51.070;14.064;2023-03-03T07:13:47;26.58;;;9.77;;
73684;SDS011;61985;51.070;14.064;2023-03-03T07:16:14;24.95;;;9.68;;
73684;SDS011;61985;51.070;14.064;2023-03-03T07:18:49;27.85;;;9.43;;
73684;SDS011;61985;51.070;14.064;2023-03-03T07:21:21;30.70;;;9.70;;
73684;SDS011;61985;51.070;14.064;2023-03-03T07:23:50;24.73;;;9.82;;
73684;SDS011;61985;51.070;14.064;2023-03-03T07:26:18;24.67;;;9.98;;
73684;SDS011;61985;51.070;14.064;2023-03-03T07:28:50;66.05;;;25.10;;
73684;SDS011;61985;51.070;14.064;2023-03-03T07:34:04;28.55;;;10.38;;
73684;SDS011;61985;51.070;14.064;2023-03-03T07:36:43;24.80;;;9.70;;
73684;SDS011;61985;51.070;14.064;2023-03-03T07:39:16;28.23;;;10.10;;
73684;SDS011;61985;51.070;14.064;2023-03-03T07:41:55;23.27;;;7.83;;
73684;SDS011;61985;51.070;14.064;2023-03-03T07:44:36;26.48;;;9.15;;
73684;SDS011;61985;51.070;14.064;2023-03-03T07:47:17;26.58;;;10.20;;
73684;SDS011;61985;51.070;14.064;2023-03-03T07:49:48;27.92;;;9.98;;
73684;SDS011;61985;51.070;14.064;2023-03-03T07:54:50;21.60;;;7.60;;
73684;SDS011;61985;51.070;14.064;2023-03-03T07:57:23;25.77;;;9.45;;
73684;SDS011;61985;51.070;14.064;2023-03-03T07:59:50;20.77;;;7.93;;
73684;SDS011;61985;51.070;14.064;2023-03-03T08:13:20;20.25;;;7.75;;
73684;SDS011;61985;51.070;14.064;2023-03-03T08:15:49;25.38;;;9.05;;
73684;SDS011;61985;51.070;14.064;2023-03-03T08:18:23;21.70;;;8.00;;
73684;SDS011;61985;51.070;14.064;2023-03-03T08:20:53;18.15;;;6.13;;
73684;SDS011;61985;51.070;14.064;2023-03-03T08:23:21;17.63;;;6.03;;
73684;SDS011;61985;51.070;14.064;2023-03-03T08:25:47;19.48;;;6.80;;
73684;SDS011;61985;51.070;14.064;2023-03-03T08:28:14;20.30;;;6.13;;
73684;SDS011;61985;51.070;14.064;2023-03-03T08:30:40;12.63;;;4.88;;
73684;SDS011;61985;51.070;14.064;2023-03-03T08:33:06;13.82;;;5.53;;
73684;SDS011;61985;51.070;14.064;2023-03-03T08:35:32;9.43;;;4.00;;
73684;SDS011;61985;51.070;14.064;2023-03-03T08:37:57;12.95;;;4.75;;
73684;SDS011;61985;51.070;14.064;2023-03-03T08:40:23;11.47;;;4.63;;
73684;SDS011;61985;51.070;14.064;2023-03-03T08:42:48;12.70;;;4.87;;
73684;SDS011;61985;51.070;14.064;2023-03-03T08:45:13;14.77;;;5.53;;
73684;SDS011;61985;51.070;14.064;2023-03-03T08:47:39;14.15;;;5.40;;
73684;SDS011;61985;51.070;14.064;2023-03-03T08:50:07;11.23;;;4.88;;
73684;SDS011;61985;51.070;14.064;2023-03-03T08:52:33;16.55;;;5.45;;
73684;SDS011;61985;51.070;14.064;2023-03-03T08:54:58;12.30;;;4.43;;
73684;SDS011;61985;51.070;14.064;2023-03-03T08:57:23;12.25;;;4.55;;
73684;SDS011;61985;51.070;14.064;2023-03-03T08:59:49;12.82;;;4.35;;
73684;SDS011;61985;51.070;14.064;2023-03-03T09:02:14;12.20;;;4.68;;
73684;SDS011;61985;51.070;14.064;2023-03-03T09:04:41;15.13;;;5.50;;
73684;SDS011;61985;51.070;14.064;2023-03-03T09:07:06;12.68;;;5.07;;
73684;SDS011;61985;51.070;14.064;2023-03-03T09:09:32;9.75;;;4.22;;
73684;SDS011;61985;51.070;14.064;2023-03-03T09:11:58;13.43;;;5.20;;
73684;SDS011;61985;51.070;14.064;2023-03-03T09:14:27;10.75;;;3.95;;
73684;SDS011;61985;51.070;14.064;2023-03-03T09:16:54;11.02;;;4.75;;
73684;SDS011;61985;51.070;14.064;2023-03-03T09:19:23;12.18;;;4.05;;
73684;SDS011;61985;51.070;14.064;2023-03-03T09:21:51;12.65;;;4.53;;
73684;SDS011;61985;51.070;14.064;2023-03-03T09:24:28;9.18;;;4.03;;
73684;SDS011;61985;51.070;14.064;2023-03-03T09:26:55;11.93;;;4.28;;
73684;SDS011;61985;51.070;14.064;2023-03-03T09:29:28;14.23;;;4.65;;
73684;SDS011;61985;51.070;14.064;2023-03-03T09:32:07;12.23;;;4.65;;
73684;SDS011;61985;51.070;14.064;2023-03-03T09:35:24;8.02;;;3.58;;
73684;SDS011;61985;51.070;14.064;2023-03-03T09:37:51;9.55;;;3.85;;
73684;SDS011;61985;51.070;14.064;2023-03-03T09:43:03;9.57;;;3.95;;
73684;SDS011;61985;51.070;14.064;2023-03-03T09:45:50;10.88;;;4.30;;
73684;SDS011;61985;51.070;14.064;2023-03-03T09:48:51;10.25;;;3.95;;
73684;SDS011;61985;51.070;14.064;2023-03-03T09:54:44;9.13;;;3.78;;
73684;SDS011;61985;51.070;14.064;2023-03-03T09:57:34;9.57;;;4.55;;
73684;SDS011;61985;51.070;14.064;2023-03-03T10:12:03;10.55;;;4.35;;
73684;SDS011;61985;51.070;14.064;2023-03-03T10:17:39;9.95;;;4.07;;
73684;SDS011;61985;51.070;14.064;2023-03-03T10:22:51;9.05;;;3.60;;
73684;SDS011;61985;51.070;14.064;2023-03-03T10:27:56;8.65;;;3.88;;
73684;SDS011;61985;51.070;14.064;2023-03-03T10:30:33;8.45;;;3.75;;
73684;SDS011;61985;51.070;14.064;2023-03-03T10:41:31;13.63;;;3.40;;
73684;SDS011;61985;51.070;14.064;2023-03-03T10:46:56;9.88;;;3.85;;
73684;SDS011;61985;51.070;14.064;2023-03-03T10:52:20;8.25;;;3.25;;
73684;SDS011;61985;51.070;14.064;2023-03-03T11:00:34;8.68;;;3.63;;
73684;SDS011;61985;51.070;14.064;2023-03-03T11:08:35;8.90;;;3.65;;
73684;SDS011;61985;51.070;14.064;2023-03-03T11:11:25;9.80;;;4.07;;
73684;SDS011;61985;51.070;14.064;2023-03-03T11:16:43;10.48;;;4.13;;
73684;SDS011;61985;51.070;14.064;2023-03-03T11:21:56;9.57;;;3.38;;
73684;SDS011;61985;51.070;14.064;2023-03-03T11:25:42;10.63;;;4.45;;
73684;SDS011;61985;51.070;14.064;2023-03-03T11:33:46;8.77;;;3.63;;
73684;SDS011;61985;51.070;14.064;2023-03-03T11:39:06;13.77;;;4.30;;
73684;SDS011;61985;51.070;14.064;2023-03-03T11:44:28;8.35;;;3.53;;
73684;SDS011;61985;51.070;14.064;2023-03-03T11:47:02;9.90;;;4.20;;
73684;SDS011;61985;51.070;14.064;2023-03-03T11:49:38;9.88;;;4.32;;
73684;SDS011;61985;51.070;14.064;2023-03-03T11:55:20;9.63;;;4.38;;
73684;SDS011;61985;51.070;14.064;2023-03-03T12:01:29;10.50;;;4.55;;
73684;SDS011;61985;51.070;14.064;2023-03-03T12:04:04;12.30;;;4.93;;
73684;SDS011;61985;51.070;14.064;2023-03-03T12:09:22;14.55;;;5.72;;
73684;SDS011;61985;51.070;14.064;2023-03-03T12:11:56;11.50;;;5.05;;
73684;SDS011;61985;51.070;14.064;2023-03-03T12:14:38;12.35;;;5.07;;
73684;SDS011;61985;51.070;14.064;2023-03-03T12:22:41;8.32;;;3.40;;
73684;SDS011;61985;51.070;14.064;2023-03-03T12:25:18;13.52;;;5.30;;
73684;SDS011;61985;51.070;14.064;2023-03-03T12:27:55;13.30;;;5.55;;
73684;SDS011;61985;51.070;14.064;2023-03-03T12:33:28;11.73;;;4.35;;
73684;SDS011;61985;51.070;14.064;2023-03-03T12:41:25;10.45;;;4.18;;
73684;SDS011;61985;51.070;14.064;2023-03-03T12:49:03;10.95;;;4.03;;
73684;SDS011;61985;51.070;14.064;2023-03-03T12:54:06;9.93;;;4.22;;
73684;SDS011;61985;51.070;14.064;2023-03-03T12:56:37;10.95;;;4.55;;
73684;SDS011;61985;51.070;14.064;2023-03-03T12:59:52;8.30;;;4.00;;
73684;SDS011;61985;51.070;14.064;2023-03-03T13:07:18;9.70;;;3.85;;
73684;SDS011;61985;51.070;14.064;2023-03-03T13:12:48;10.18;;;4.32;;
73684;SDS011;61985;51.070;14.064;2023-03-03T13:15:17;10.93;;;5.20;;
73684;SDS011;61985;51.070;14.064;2023-03-03T13:17:58;12.55;;;4.85;;
73684;SDS011;61985;51.070;14.064;2023-03-03T13:30:47;10.05;;;4.15;;
73684;SDS011;61985;51.070;14.064;2023-03-03T13:33:24;11.32;;;3.90;;
73684;SDS011;61985;51.070;14.064;2023-03-03T13:36:00;12.98;;;3.85;;
73684;SDS011;61985;51.070;14.064;2023-03-03T13:38:31;8.02;;;3.88;;
73684;SDS011;61985;51.070;14.064;2023-03-03T13:52:28;10.77;;;4.25;;
73684;SDS011;61985;51.070;14.064;2023-03-03T13:55:41;10.00;;;4.90;;
73684;SDS011;61985;51.070;14.064;2023-03-03T13:57:58;10.98;;;4.20;;
73684;SDS011;61985;51.070;14.064;2023-03-03T14:00:37;12.35;;;5.55;;
73684;SDS011;61985;51.070;14.064;2023-03-03T14:05:45;9.23;;;4.00;;
73684;SDS011;61985;51.070;14.064;2023-03-03T14:10:50;11.73;;;4.97;;
73684;SDS011;61985;51.070;14.064;2023-03-03T14:16:04;10.82;;;5.00;;
73684;SDS011;61985;51.070;14.064;2023-03-03T14:18:37;13.75;;;4.75;;
73684;SDS011;61985;51.070;14.064;2023-03-03T14:21:15;12.85;;;5.60;;
73684;SDS011;61985;51.070;14.064;2023-03-03T14:26:46;8.65;;;4.32;;
73684;SDS011;61985;51.070;14.064;2023-03-03T14:31:54;14.70;;;6.00;;
73684;SDS011;61985;51.070;14.064;2023-03-03T14:34:40;16.52;;;5.93;;
73684;SDS011;61985;51.070;14.064;2023-03-03T14:37:25;14.13;;;6.63;;
73684;SDS011;61985;51.070;14.064;2023-03-03T14:42:37;14.02;;;6.63;;
73684;SDS011;61985;51.070;14.064;2023-03-03T14:45:14;19.05;;;9.15;;
73684;SDS011;61985;51.070;14.064;2023-03-03T14:47:45;13.95;;;5.80;;
73684;SDS011;61985;51.070;14.064;2023-03-03T14:50:29;12.77;;;5.35;;
73684;SDS011;61985;51.070;14.064;2023-03-03T14:53:06;122.78;;;44.65;;
73684;SDS011;61985;51.070;14.064;2023-03-03T14:55:38;33.35;;;15.27;;
73684;SDS011;61985;51.070;14.064;2023-03-03T15:00:49;23.77;;;12.77;;
73684;SDS011;61985;51.070;14.064;2023-03-03T15:05:56;18.48;;;9.07;;
73684;SDS011;61985;51.070;14.064;2023-03-03T15:08:32;17.17;;;6.50;;
73684;SDS011;61985;51.070;14.064;2023-03-03T15:13:45;18.13;;;8.75;;
73684;SDS011;61985;51.070;14.064;2023-03-03T15:16:17;14.32;;;7.90;;
73684;SDS011;61985;51.070;14.064;2023-03-03T15:21:28;11.27;;;4.57;;
73684;SDS011;61985;51.070;14.064;2023-03-03T15:26:48;12.90;;;5.38;;
73684;SDS011;61985;51.070;14.064;2023-03-03T15:29:39;13.65;;;7.00;;
73684;SDS011;61985;51.070;14.064;2023-03-03T15:37:51;16.58;;;7.60;;
73684;SDS011;61985;51.070;14.064;2023-03-03T15:40:27;12.82;;;5.68;;
73684;SDS011;61985;51.070;14.064;2023-03-03T15:48:40;18.80;;;7.07;;
73684;SDS011;61985;51.070;14.064;2023-03-03T15:56:49;14.23;;;5.90;;
73684;SDS011;61985;51.070;14.064;2023-03-03T15:59:28;17.02;;;6.15;;
73684;SDS011;61985;51.070;14.064;2023-03-03T16:02:38;11.98;;;5.65;;
73684;SDS011;61985;51.070;14.064;2023-03-03T16:12:59;14.88;;;6.80;;
73684;SDS011;61985;51.070;14.064;2023-03-03T16:18:22;15.15;;;6.40;;
73684;SDS011;61985;51.070;14.064;2023-03-03T16:31:24;14.80;;;6.75;;
73684;SDS011;61985;51.070;14.064;2023-03-03T16:34:00;15.20;;;6.28;;
73684;SDS011;61985;51.070;14.064;2023-03-03T16:36:49;15.30;;;5.85;;
73684;SDS011;61985;51.070;14.064;2023-03-03T16:39:34;16.48;;;6.10;;
73684;SDS011;61985;51.070;14.064;2023-03-03T16:42:20;16.10;;;5.45;;
73684;SDS011;61985;51.070;14.064;2023-03-03T16:53:34;15.80;;;6.82;;
73684;SDS011;61985;51.070;14.064;2023-03-03T17:01:23;16.15;;;6.55;;
73684;SDS011;61985;51.070;14.064;2023-03-03T17:03:54;16.52;;;7.53;;
73684;SDS011;61985;51.070;14.064;2023-03-03T17:11:48;18.42;;;7.30;;
73684;SDS011;61985;51.070;14.064;2023-03-03T17:25:58;19.80;;;8.20;;
73684;SDS011;61985;51.070;14.064;2023-03-03T17:28:35;17.23;;;6.53;;
73684;SDS011;61985;51.070;14.064;2023-03-03T17:37:15;20.27;;;10.25;;
73684;SDS011;61985;51.070;14.064;2023-03-03T17:42:59;20.55;;;8.75;;
73684;SDS011;61985;51.070;14.064;2023-03-03T17:45:35;21.67;;;8.85;;
73684;SDS011;61985;51.070;14.064;2023-03-03T18:05:57;20.98;;;8.85;;
73684;SDS011;61985;51.070;14.064;2023-03-03T18:11:33;24.65;;;9.25;;
73684;SDS011;61985;51.070;14.064;2023-03-03T18:14:28;29.95;;;11.55;;
73684;SDS011;61985;51.070;14.064;2023-03-03T18:17:09;23.90;;;8.73;;
73684;SDS011;61985;51.070;14.064;2023-03-03T18:19:59;24.25;;;10.25;;
73684;SDS011;61985;51.070;14.064;2023-03-03T18:22:41;21.05;;;8.55;;
73684;SDS011;61985;51.070;14.064;2023-03-03T18:27:36;23.73;;;9.05;;
73684;SDS011;61985;51.070;14.064;2023-03-03T18:32:39;30.33;;;10.90;;
73684;SDS011;61985;51.070;14.064;2023-03-03T18:35:20;25.38;;;8.95;;
73684;SDS011;61985;51.070;14.064;2023-03-03T18:41:01;31.73;;;10.45;;
73684;SDS011;61985;51.070;14.064;2023-03-03T18:46:04;26.13;;;9.35;;
73684;SDS011;61985;51.070;14.064;2023-03-03T18:48:55;25.90;;;9.57;;
73684;SDS011;61985;51.070;14.064;2023-03-03T18:54:00;28.90;;;11.82;;
73684;SDS011;61985;51.070;14.064;2023-03-03T18:59:08;31.13;;;10.70;;
73684;SDS011;61985;51.070;14.064;2023-03-03T19:01:37;36.03;;;12.80;;
73684;SDS011;61985;51.070;14.064;2023-03-03T19:09:03;31.55;;;11.40;;
73684;SDS011;61985;51.070;14.064;2023-03-03T19:11:32;37.78;;;12.23;;
73684;SDS011;61985;51.070;14.064;2023-03-03T19:22:45;46.30;;;16.08;;
73684;SDS011;61985;51.070;14.064;2023-03-03T19:36:46;37.33;;;14.77;;
73684;SDS011;61985;51.070;14.064;2023-03-03T19:47:38;45.17;;;15.88;;
73684;SDS011;61985;51.070;14.064;2023-03-03T19:55:54;53.88;;;16.50;;
73684;SDS011;61985;51.070;14.064;2023-03-03T20:01:03;48.17;;;15.32;;
73684;SDS011;61985;51.070;14.064;2023-03-03T20:14:57;56.13;;;18.98;;
73684;SDS011;61985;51.070;14.064;2023-03-03T20:23:03;53.53;;;16.13;;
73684;SDS011;61985;51.070;14.064;2023-03-03T20:26:30;53.20;;;17.02;;
73684;SDS011;61985;51.070;14.064;2023-03-03T20:34:49;50.17;;;16.13;;
73684;SDS011;61985;51.070;14.064;2023-03-03T20:37:34;47.55;;;14.60;;
73684;SDS011;61985;51.070;14.064;2023-03-03T20:42:49;43.80;;;14.93;;
73684;SDS011;61985;51.070;14.064;2023-03-03T20:45:26;45.50;;;14.13;;
73684;SDS011;61985;51.070;14.064;2023-03-03T20:48:07;45.97;;;15.00;;
73684;SDS011;61985;51.070;14.064;2023-03-03T20:56:51;42.92;;;15.45;;
73684;SDS011;61985;51.070;14.064;2023-03-03T21:02:34;44.40;;;15.15;;